createdAt,value
2023-02-19T00:01:24.645Z,81.89
2023-02-19T00:03:55.884Z,81.61
2023-02-19T00:06:24.727Z,81.91
2023-02-19T00:08:51.442Z,81.54
2023-02-19T00:11:20.556Z,81.34
2023-02-19T00:13:49.447Z,81.31
2023-02-19T00:16:19.308Z,81.16
2023-02-19T00:18:46.450Z,81.01
2023-02-19T00:21:13.943Z,80.90
2023-02-19T00:23:40.466Z,80.88
2023-02-19T00:26:18.273Z,80.59
2023-02-19T00:28:46.912Z,80.19
2023-02-19T00:31:33.684Z,80.37
2023-02-19T00:34:02.355Z,80.25
2023-02-19T00:36:30.409Z,80.05
2023-02-19T00:38:57.221Z,79.81
2023-02-19T00:41:24.948Z,79.58
2023-02-19T00:43:53.102Z,79.65
2023-02-19T00:46:24.266Z,79.39
2023-02-19T00:48:52.600Z,79.43
2023-02-19T00:51:21.322Z,79.35
2023-02-19T00:53:48.347Z,79.26
2023-02-19T00:56:14.831Z,79.49
2023-02-19T00:58:41.506Z,79.72
2023-02-19T01:01:09.170Z,79.90
2023-02-19T01:03:37.284Z,80.19
2023-02-19T01:06:05.544Z,80.08
2023-02-19T01:08:33.412Z,79.75
2023-02-19T01:11:00.720Z,79.91
2023-02-19T01:13:28.564Z,79.98
2023-02-19T01:16:09.577Z,80.16
2023-02-19T01:18:36.407Z,79.92
2023-02-19T01:21:07.948Z,80.05
2023-02-19T01:23:35.367Z,79.90
2023-02-19T01:26:08.739Z,80.30
2023-02-19T01:28:35.912Z,80.32
2023-02-19T01:31:04.140Z,80.52
2023-02-19T01:33:31.537Z,80.48
2023-02-19T01:35:58.307Z,80.47
2023-02-19T01:38:24.848Z,80.52
2023-02-19T01:40:56.567Z,80.42
2023-02-19T01:43:23.608Z,80.35
2023-02-19T01:45:50.253Z,80.46
2023-02-19T01:48:37.769Z,81.40
2023-02-19T01:51:09.629Z,82.69
2023-02-19T01:53:44.209Z,83.63
2023-02-19T01:56:13.444Z,84.36
2023-02-19T01:58:40.802Z,85.48
2023-02-19T02:01:08.876Z,86.25
2023-02-19T02:03:38.111Z,87.70
2023-02-19T02:06:17.514Z,88.79
2023-02-19T02:09:02.839Z,89.83
2023-02-19T02:11:29.579Z,91.26
2023-02-19T02:13:57.074Z,92.24
2023-02-19T02:16:42.106Z,93.18
2023-02-19T02:19:29.898Z,94.38
2023-02-19T02:22:07.762Z,95.02
2023-02-19T02:24:45.233Z,95.82
2023-02-19T02:27:28.296Z,96.47
2023-02-19T02:30:19.443Z,96.67
2023-02-19T02:33:03.426Z,97.66
2023-02-19T02:35:36.630Z,97.99
2023-02-19T02:38:09.982Z,98.51
2023-02-19T02:40:40.794Z,99.28
2023-02-19T02:43:07.392Z,100.00
2023-02-19T02:45:37.316Z,100.00
2023-02-19T02:48:18.973Z,100.00
2023-02-19T02:50:48.430Z,100.00
2023-02-19T02:53:41.603Z,100.00
2023-02-19T02:56:10.474Z,100.00
2023-02-19T02:58:37.938Z,100.00
2023-02-19T03:01:28.447Z,100.00
2023-02-19T03:04:01.382Z,100.00
2023-02-19T03:06:31.478Z,100.00
2023-02-19T03:09:18.140Z,100.00
2023-02-19T03:12:07.775Z,100.00
2023-02-19T03:14:59.359Z,100.00
2023-02-19T03:18:16.295Z,100.00
2023-02-19T03:20:48.629Z,100.00
2023-02-19T03:23:18.271Z,99.64
2023-02-19T03:26:03.515Z,100.00
2023-02-19T03:28:53.166Z,100.00
2023-02-19T03:31:24.006Z,99.03
2023-02-19T03:33:57.508Z,98.31
2023-02-19T03:36:28.229Z,97.49
2023-02-19T03:39:17.286Z,96.08
2023-02-19T03:41:51.590Z,95.76
2023-02-19T03:44:29.929Z,95.71
2023-02-19T03:47:07.754Z,95.41
2023-02-19T03:49:34.208Z,96.09
2023-02-19T03:52:12.625Z,96.45
2023-02-19T03:54:43.737Z,97.17
2023-02-19T03:57:21.790Z,97.52
2023-02-19T04:00:01.329Z,98.27
2023-02-19T04:02:32.986Z,99.81
2023-02-19T04:05:07.551Z,100.00
2023-02-19T04:07:38.852Z,100.00
2023-02-19T04:10:07.809Z,100.00
2023-02-19T04:12:39.102Z,100.00
2023-02-19T04:15:12.436Z,100.00
2023-02-19T04:17:44.700Z,100.00
2023-02-19T04:20:13.819Z,100.00
2023-02-19T04:22:41.888Z,100.00
2023-02-19T04:25:09.180Z,100.00
2023-02-19T04:27:38.279Z,100.00
2023-02-19T04:30:07.477Z,100.00
2023-02-19T04:32:34.017Z,100.00
2023-02-19T04:35:00.528Z,100.00
2023-02-19T04:37:27.028Z,100.00
2023-02-19T04:39:53.559Z,100.00
2023-02-19T04:42:20.046Z,100.00
2023-02-19T04:44:46.586Z,100.00
2023-02-19T04:47:13.150Z,100.00
2023-02-19T04:49:39.633Z,100.00
2023-02-19T04:52:06.155Z,100.00
2023-02-19T04:54:32.629Z,100.00
2023-02-19T04:56:59.136Z,100.00
2023-02-19T04:59:25.643Z,100.00
2023-02-19T05:01:52.185Z,100.00
2023-02-19T05:04:19.055Z,100.00
2023-02-19T05:06:45.642Z,100.00
2023-02-19T05:09:12.272Z,100.00
2023-02-19T05:11:38.774Z,100.00
2023-02-19T05:14:05.446Z,100.00
2023-02-19T05:16:33.192Z,100.00
2023-02-19T05:18:59.856Z,100.00
2023-02-19T05:21:26.492Z,100.00
2023-02-19T05:23:53.011Z,100.00
2023-02-19T05:26:22.410Z,100.00
2023-02-19T05:28:53.294Z,100.00
2023-02-19T05:31:20.524Z,100.00
2023-02-19T05:33:51.150Z,100.00
2023-02-19T05:36:19.891Z,100.00
2023-02-19T05:38:47.124Z,100.00
2023-02-19T05:41:16.926Z,100.00
2023-02-19T05:43:45.346Z,100.00
2023-02-19T05:46:14.440Z,100.00
2023-02-19T05:48:41.677Z,100.00
2023-02-19T05:51:12.516Z,100.00
2023-02-19T05:53:39.304Z,100.00
2023-02-19T05:56:24.271Z,100.00
2023-02-19T05:58:51.020Z,100.00
2023-02-19T06:01:19.582Z,100.00
2023-02-19T06:03:46.063Z,100.00
2023-02-19T06:06:18.088Z,100.00
2023-02-19T06:08:44.555Z,100.00
2023-02-19T06:11:11.399Z,100.00
2023-02-19T06:13:38.103Z,100.00
2023-02-19T06:16:05.676Z,100.00
2023-02-19T06:18:32.424Z,100.00
2023-02-19T06:21:02.786Z,100.00
2023-02-19T06:23:30.139Z,100.00
2023-02-19T06:26:12.944Z,100.00
2023-02-19T06:28:40.751Z,100.00
2023-02-19T06:31:08.810Z,100.00
2023-02-19T06:33:35.804Z,100.00
2023-02-19T06:36:04.153Z,100.00
2023-02-19T06:38:31.266Z,100.00
2023-02-19T06:41:06.022Z,100.00
2023-02-19T06:43:33.765Z,100.00
2023-02-19T06:46:01.983Z,100.00
2023-02-19T06:48:30.680Z,100.00
2023-02-19T06:50:57.473Z,100.00
2023-02-19T06:53:24.489Z,100.00
2023-02-19T06:55:57.622Z,100.00
2023-02-19T06:58:24.478Z,99.60
2023-02-19T07:00:51.153Z,98.82
2023-02-19T07:03:17.679Z,98.94
2023-02-19T07:05:44.205Z,99.01
2023-02-19T07:08:10.752Z,100.00
2023-02-19T07:10:37.260Z,100.00
2023-02-19T07:13:03.746Z,100.00
2023-02-19T07:15:30.326Z,100.00
2023-02-19T07:17:56.807Z,100.00
2023-02-19T07:20:23.274Z,100.00
2023-02-19T07:22:50.536Z,100.00
2023-02-19T07:25:17.224Z,100.00
2023-02-19T07:27:43.665Z,100.00
2023-02-19T07:30:10.719Z,100.00
2023-02-19T07:32:41.235Z,100.00
2023-02-19T07:35:07.931Z,100.00
2023-02-19T07:37:34.456Z,100.00
2023-02-19T07:40:01.025Z,100.00
2023-02-19T07:42:27.484Z,100.00
2023-02-19T07:44:53.973Z,100.00
2023-02-19T07:47:20.434Z,100.00
2023-02-19T07:49:46.869Z,100.00
2023-02-19T07:52:13.336Z,100.00
2023-02-19T07:54:39.831Z,100.00
2023-02-19T07:57:06.267Z,100.00
2023-02-19T07:59:32.811Z,100.00
2023-02-19T08:02:18.005Z,100.00
2023-02-19T08:04:45.754Z,100.00
2023-02-19T08:07:12.201Z,100.00
2023-02-19T08:09:38.686Z,100.00
2023-02-19T08:12:24.115Z,100.00
2023-02-19T08:14:50.622Z,100.00
2023-02-19T08:17:17.137Z,100.00
2023-02-19T08:19:43.656Z,98.95
2023-02-19T08:22:10.189Z,100.00
2023-02-19T08:24:37.889Z,99.60
2023-02-19T08:27:04.343Z,100.00
2023-02-19T08:29:30.791Z,100.00
2023-02-19T08:31:57.343Z,100.00
2023-02-19T08:34:23.811Z,100.00
2023-02-19T08:36:50.711Z,98.03
2023-02-19T08:39:19.396Z,97.70
2023-02-19T08:41:46.579Z,97.78
2023-02-19T08:44:13.011Z,98.57
2023-02-19T08:46:39.457Z,100.00
2023-02-19T08:49:05.997Z,99.84
2023-02-19T08:51:32.467Z,100.00
2023-02-19T08:53:58.932Z,100.00
2023-02-19T08:56:25.412Z,100.00
2023-02-19T08:58:51.840Z,100.00
2023-02-19T09:01:18.850Z,98.53
2023-02-19T09:03:46.150Z,98.03
2023-02-19T09:06:18.165Z,97.36
2023-02-19T09:08:44.825Z,96.38
2023-02-19T09:11:11.748Z,95.25
2023-02-19T09:13:38.485Z,96.15
2023-02-19T09:16:05.990Z,95.22
2023-02-19T09:18:32.667Z,94.46
2023-02-19T09:21:04.747Z,95.20
2023-02-19T09:23:35.125Z,94.18
2023-02-19T09:26:03.317Z,93.87
2023-02-19T09:28:29.823Z,92.95
2023-02-19T09:30:56.342Z,92.31
2023-02-19T09:33:22.936Z,91.72
2023-02-19T09:35:49.518Z,91.85
2023-02-19T09:38:16.025Z,92.40
2023-02-19T09:40:42.556Z,93.79
2023-02-19T09:43:15.838Z,93.76
2023-02-19T09:45:42.724Z,94.50
2023-02-19T09:48:11.902Z,95.00
2023-02-19T09:50:44.883Z,94.02
2023-02-19T09:53:23.945Z,92.96
2023-02-19T09:55:52.765Z,95.52
2023-02-19T09:58:27.360Z,98.35
2023-02-19T10:00:56.929Z,98.90
2023-02-19T10:03:30.922Z,98.68
2023-02-19T10:06:19.148Z,96.79
2023-02-19T10:08:47.353Z,95.91
2023-02-19T10:11:14.717Z,90.46
2023-02-19T10:14:09.396Z,92.84
2023-02-19T10:16:40.758Z,91.37
2023-02-19T10:19:12.320Z,89.99
2023-02-19T10:21:39.545Z,87.03
2023-02-19T10:24:07.396Z,84.52
2023-02-19T10:26:36.762Z,86.41
2023-02-19T10:29:04.111Z,84.70
2023-02-19T10:31:33.403Z,86.92
2023-02-19T10:34:02.118Z,85.46
2023-02-19T10:36:35.841Z,84.86
2023-02-19T10:39:05.683Z,83.78
2023-02-19T10:41:32.204Z,82.78
2023-02-19T10:44:07.142Z,83.51
2023-02-19T10:46:37.324Z,86.20
2023-02-19T10:49:39.136Z,81.29
2023-02-19T10:52:17.840Z,82.70
2023-02-19T10:54:45.786Z,82.11
2023-02-19T10:57:15.191Z,82.47
2023-02-19T10:59:57.762Z,82.36
2023-02-19T11:02:25.741Z,81.53
2023-02-19T11:05:12.104Z,81.82
2023-02-19T11:07:48.164Z,82.15
2023-02-19T11:10:40.653Z,80.36
2023-02-19T11:13:16.331Z,80.67
2023-02-19T11:15:43.870Z,79.44
2023-02-19T11:18:13.478Z,77.59
2023-02-19T11:20:47.297Z,80.40
2023-02-19T11:23:18.035Z,79.72
2023-02-19T11:25:47.230Z,79.00
2023-02-19T11:28:16.434Z,80.10
2023-02-19T11:30:44.449Z,80.10
2023-02-19T11:33:27.503Z,79.80
2023-02-19T11:36:00.631Z,78.86
2023-02-19T11:38:27.614Z,77.75
2023-02-19T11:40:56.824Z,77.38
2023-02-19T11:43:57.337Z,74.69
2023-02-19T11:46:57.633Z,73.78
2023-02-19T11:49:42.416Z,74.12
2023-02-19T11:52:32.254Z,74.34
2023-02-19T11:55:22.519Z,74.96
2023-02-19T11:58:06.176Z,75.03
2023-02-19T12:00:44.234Z,74.69
2023-02-19T12:03:22.625Z,75.08
2023-02-19T12:06:20.596Z,74.67
2023-02-19T12:09:14.238Z,74.03
2023-02-19T12:12:05.597Z,75.69
2023-02-19T12:14:49.354Z,77.02
2023-02-19T12:17:49.263Z,73.08
2023-02-19T12:20:43.801Z,72.95
2023-02-19T12:23:38.930Z,74.47
2023-02-19T12:26:20.820Z,74.55
2023-02-19T12:29:12.303Z,76.84
2023-02-19T12:31:56.264Z,74.09
2023-02-19T12:34:47.541Z,72.67
2023-02-19T12:37:36.492Z,72.97
2023-02-19T12:40:21.466Z,72.82
2023-02-19T12:43:03.229Z,73.22
2023-02-19T12:45:42.765Z,72.54
2023-02-19T12:48:28.235Z,71.60
2023-02-19T12:51:05.488Z,69.56
2023-02-19T12:53:36.206Z,71.28
2023-02-19T12:56:08.281Z,70.63
2023-02-19T12:58:48.155Z,69.29
2023-02-19T13:01:22.045Z,69.73
2023-02-19T13:03:58.045Z,69.12
2023-02-19T13:06:41.170Z,67.80
2023-02-19T13:09:23.554Z,67.02
2023-02-19T13:12:05.485Z,67.92
2023-02-19T13:14:41.425Z,67.63
2023-02-19T13:17:16.967Z,69.08
2023-02-19T13:19:46.757Z,67.27
2023-02-19T13:22:57.586Z,69.16
2023-02-19T13:29:14.471Z,67.10
2023-02-19T13:31:44.361Z,65.95
2023-02-19T13:34:25.832Z,65.45
2023-02-19T13:36:54.018Z,65.93
2023-02-19T13:39:31.247Z,65.36
2023-02-19T13:42:01.907Z,63.90
2023-02-19T13:44:31.287Z,63.32
2023-02-19T13:47:00.970Z,63.49
2023-02-19T13:49:31.662Z,63.42
2023-02-19T13:51:59.056Z,63.78
2023-02-19T13:54:33.535Z,64.08
2023-02-19T13:57:20.850Z,64.44
2023-02-19T13:59:48.333Z,63.86
2023-02-19T14:02:28.002Z,63.22
2023-02-19T14:05:00.693Z,63.21
2023-02-19T14:07:47.894Z,62.61
2023-02-19T14:10:58.161Z,62.88
2023-02-19T14:14:06.479Z,62.01
2023-02-19T14:16:56.128Z,61.62
2023-02-19T14:20:20.918Z,62.63
2023-02-19T14:22:47.482Z,61.97
2023-02-19T14:25:40.284Z,62.79
2023-02-19T14:28:30.110Z,62.72
2023-02-19T14:31:09.161Z,63.17
2023-02-19T14:33:40.175Z,62.85
2023-02-19T14:36:29.651Z,62.73
2023-02-19T14:39:18.419Z,62.72
2023-02-19T14:41:49.664Z,63.56
2023-02-19T14:44:21.087Z,63.61
2023-02-19T14:46:57.318Z,63.21
2023-02-19T14:49:55.276Z,64.19
2023-02-19T14:52:32.011Z,64.00
2023-02-19T14:55:03.945Z,64.57
2023-02-19T14:57:36.542Z,64.84
2023-02-19T15:00:20.557Z,64.76
2023-02-19T15:02:47.303Z,65.01
2023-02-19T15:05:29.855Z,65.60
2023-02-19T15:08:00.118Z,65.27
2023-02-19T15:10:32.161Z,64.77
2023-02-19T15:13:06.024Z,64.70
2023-02-19T15:15:45.318Z,64.30
2023-02-19T15:18:23.882Z,63.73
2023-02-19T15:20:52.678Z,64.36
2023-02-19T15:23:23.647Z,64.04
2023-02-19T15:25:50.809Z,64.19
2023-02-19T15:28:26.043Z,65.33
2023-02-19T15:31:00.970Z,65.00
2023-02-19T15:33:28.328Z,65.28
2023-02-19T15:36:01.315Z,64.81
2023-02-19T15:38:29.287Z,65.00
2023-02-19T15:40:58.876Z,64.97
2023-02-19T15:43:30.763Z,64.32
2023-02-19T15:46:03.249Z,64.63
2023-02-19T15:48:41.306Z,64.35
2023-02-19T15:51:15.991Z,63.50
2023-02-19T15:53:48.038Z,64.05
2023-02-19T15:56:30.508Z,64.55
2023-02-19T15:59:03.659Z,64.36
2023-02-19T16:01:36.905Z,64.73
2023-02-19T16:04:06.547Z,65.51
2023-02-19T16:06:51.658Z,64.45
2023-02-19T16:09:33.457Z,64.40
2023-02-19T16:12:01.537Z,65.04
2023-02-19T16:14:28.006Z,64.53
2023-02-19T16:16:59.236Z,64.72
2023-02-19T16:19:32.516Z,65.10
2023-02-19T16:22:00.543Z,65.09
2023-02-19T16:24:37.148Z,65.76
2023-02-19T16:27:05.086Z,66.00
2023-02-19T16:29:33.181Z,66.74
2023-02-19T16:32:03.418Z,66.77
2023-02-19T16:34:47.016Z,66.78
2023-02-19T16:37:33.249Z,67.27
2023-02-19T16:40:09.017Z,68.00
2023-02-19T16:43:04.208Z,68.12
2023-02-19T16:45:30.734Z,68.34
2023-02-19T16:47:57.368Z,68.14
2023-02-19T16:50:26.775Z,68.22
2023-02-19T16:52:54.838Z,68.56
2023-02-19T16:55:21.856Z,68.83
2023-02-19T16:57:48.418Z,69.28
2023-02-19T17:00:19.160Z,69.51
2023-02-19T17:02:51.254Z,69.70
2023-02-19T17:05:19.677Z,69.96
2023-02-19T17:07:46.210Z,69.86
2023-02-19T17:10:24.273Z,69.95
2023-02-19T17:12:52.309Z,69.79
2023-02-19T17:15:18.878Z,69.45
2023-02-19T17:17:45.699Z,69.75
2023-02-19T17:20:21.506Z,69.39
2023-02-19T17:22:47.971Z,69.49
2023-02-19T17:25:14.508Z,69.67
2023-02-19T17:27:41.328Z,69.63
2023-02-19T17:30:19.849Z,70.03
2023-02-19T17:32:46.415Z,69.22
2023-02-19T17:35:13.560Z,69.27
2023-02-19T17:37:40.364Z,69.73
2023-02-19T17:40:33.585Z,69.50
2023-02-19T17:43:01.189Z,69.75
2023-02-19T17:45:28.021Z,70.20
2023-02-19T17:47:54.624Z,70.10
2023-02-19T17:50:24.079Z,70.10
2023-02-19T17:52:50.519Z,70.36
2023-02-19T17:55:18.413Z,70.21
2023-02-19T17:57:45.960Z,70.39
2023-02-19T18:00:18.855Z,70.25
2023-02-19T18:02:45.319Z,70.21
2023-02-19T18:05:12.023Z,69.78
2023-02-19T18:07:38.683Z,69.89
2023-02-19T18:10:07.026Z,69.67
2023-02-19T18:12:33.539Z,69.47
2023-02-19T18:15:00.027Z,69.80
2023-02-19T18:17:26.966Z,69.80
2023-02-19T18:19:54.069Z,69.57
2023-02-19T18:22:20.910Z,69.78
2023-02-19T18:24:52.268Z,69.67
2023-02-19T18:27:23.471Z,70.06
2023-02-19T18:29:56.439Z,69.98
2023-02-19T18:32:24.442Z,69.86
2023-02-19T18:34:56.875Z,69.89
2023-02-19T18:37:25.142Z,69.95
2023-02-19T18:39:52.384Z,69.91
2023-02-19T18:42:19.105Z,69.77
2023-02-19T18:44:49.657Z,69.83
2023-02-19T18:47:17.279Z,69.67
2023-02-19T18:49:50.353Z,70.10
2023-02-19T18:52:20.345Z,70.44
2023-02-19T18:54:47.827Z,70.69
2023-02-19T18:57:15.136Z,70.92
2023-02-19T18:59:42.878Z,71.20
2023-02-19T19:02:10.412Z,71.49
2023-02-19T19:04:38.605Z,71.12
2023-02-19T19:07:06.495Z,71.54
2023-02-19T19:09:33.881Z,71.55
2023-02-19T19:12:00.937Z,71.58
2023-02-19T19:14:27.296Z,71.55
2023-02-19T19:16:53.749Z,71.45
2023-02-19T19:19:20.385Z,71.92
2023-02-19T19:21:53.316Z,71.80
2023-02-19T19:24:21.115Z,72.11
2023-02-19T19:26:48.630Z,71.78
2023-02-19T19:29:17.454Z,71.92
2023-02-19T19:31:44.755Z,72.14
2023-02-19T19:34:12.438Z,72.38
2023-02-19T19:36:38.921Z,72.28
2023-02-19T19:39:05.793Z,72.76
2023-02-19T19:41:32.223Z,73.06
2023-02-19T19:43:58.761Z,73.08
2023-02-19T19:46:25.215Z,73.18
2023-02-19T19:48:52.871Z,73.72
2023-02-19T19:51:19.364Z,73.92
2023-02-19T19:53:49.775Z,74.21
2023-02-19T19:56:17.484Z,74.25
2023-02-19T19:58:44.011Z,74.23
2023-02-19T20:01:10.904Z,74.53
2023-02-19T20:03:47.448Z,74.71
2023-02-19T20:06:13.776Z,75.05
2023-02-19T20:08:40.266Z,75.22
2023-02-19T20:11:06.758Z,75.68
2023-02-19T20:13:34.500Z,76.03
2023-02-19T20:16:01.088Z,76.24
2023-02-19T20:18:27.579Z,76.02
2023-02-19T20:20:54.155Z,75.99
2023-02-19T20:23:20.660Z,76.06
2023-02-19T20:25:47.081Z,75.99
2023-02-19T20:28:13.565Z,76.29
2023-02-19T20:30:40.115Z,76.41
2023-02-19T20:33:06.580Z,76.82
2023-02-19T20:35:33.729Z,76.69
2023-02-19T20:38:00.197Z,76.79
2023-02-19T20:40:30.384Z,77.06
2023-02-19T20:42:57.383Z,77.27
2023-02-19T20:45:23.814Z,76.99
2023-02-19T20:47:50.257Z,76.94
2023-02-19T20:50:18.623Z,77.05
2023-02-19T20:52:45.998Z,77.16
2023-02-19T20:55:12.671Z,77.18
2023-02-19T20:57:39.259Z,77.23
2023-02-19T21:00:06.532Z,77.81
2023-02-19T21:02:33.166Z,77.68
2023-02-19T21:05:00.829Z,77.74
2023-02-19T21:07:27.542Z,78.15
2023-02-19T21:09:54.320Z,78.06
2023-02-19T21:12:22.553Z,77.94
2023-02-19T21:14:49.325Z,78.05
2023-02-19T21:17:15.836Z,78.13
2023-02-19T21:19:42.383Z,78.56
2023-02-19T21:22:08.811Z,78.67
2023-02-19T21:24:35.506Z,78.81
2023-02-19T21:27:01.968Z,79.26
2023-02-19T21:29:28.520Z,79.64
2023-02-19T21:31:56.695Z,79.99
2023-02-19T21:34:26.238Z,79.76
2023-02-19T21:36:53.392Z,80.08
2023-02-19T21:39:21.682Z,79.95
2023-02-19T21:41:48.806Z,80.21
2023-02-19T21:44:15.820Z,80.58
2023-02-19T21:46:42.217Z,81.11
2023-02-19T21:49:09.437Z,81.06
2023-02-19T21:51:38.867Z,80.93
2023-02-19T21:54:06.719Z,80.82
2023-02-19T21:56:37.735Z,81.03
2023-02-19T21:59:04.487Z,81.30
2023-02-19T22:01:33.336Z,81.31
2023-02-19T22:04:00.332Z,81.86
2023-02-19T22:06:29.170Z,82.24
2023-02-19T22:08:56.021Z,82.55
2023-02-19T22:11:22.782Z,82.64
2023-02-19T22:13:52.074Z,83.18
2023-02-19T22:16:18.695Z,83.37
2023-02-19T22:18:53.290Z,83.97
2023-02-19T22:21:20.847Z,84.04
2023-02-19T22:23:49.419Z,84.02
2023-02-19T22:26:23.112Z,84.23
2023-02-19T22:28:49.789Z,84.18
2023-02-19T22:31:18.133Z,84.28
2023-02-19T22:33:44.978Z,84.42
2023-02-19T22:36:28.871Z,84.62
2023-02-19T22:38:55.320Z,85.05
2023-02-19T22:41:22.428Z,84.59
2023-02-19T22:43:50.032Z,84.57
2023-02-19T22:46:19.333Z,84.34
2023-02-19T22:48:46.285Z,84.64
2023-02-19T22:51:18.558Z,84.92
2023-02-19T22:53:53.065Z,85.24
2023-02-19T22:56:21.008Z,85.36
2023-02-19T22:58:47.578Z,85.86
2023-02-19T23:01:15.447Z,86.11
2023-02-19T23:03:50.212Z,86.49
2023-02-19T23:06:20.647Z,86.74
2023-02-19T23:08:47.095Z,87.07
2023-02-19T23:11:20.527Z,87.04
2023-02-19T23:13:46.990Z,87.17
2023-02-19T23:16:13.618Z,86.90
2023-02-19T23:18:40.299Z,86.79
2023-02-19T23:21:06.901Z,87.01
2023-02-19T23:23:33.367Z,86.44
2023-02-19T23:26:02.091Z,85.68
2023-02-19T23:28:28.702Z,85.75
2023-02-19T23:30:55.239Z,84.88
2023-02-19T23:33:21.738Z,84.33
2023-02-19T23:35:48.177Z,83.51
2023-02-19T23:38:14.667Z,83.66
2023-02-19T23:40:41.156Z,83.95
2023-02-19T23:43:07.572Z,83.66
2023-02-19T23:45:34.160Z,83.93
2023-02-19T23:48:00.571Z,83.63
2023-02-19T23:50:27.054Z,83.88
2023-02-19T23:52:53.676Z,83.91
2023-02-19T23:55:20.134Z,83.75
2023-02-19T23:57:46.550Z,83.82
